CheckWX is a tool to help pilots better visualize weather data.  It is not intended as a substitute for an official pre-flight weather briefing.

20:04:50 UTC

KJER TAF
Jerome County Airport
Jerome, Idaho, USA
KJER 302335Z 3100/3124 25015G25KT P6SM VCSH BKN100 FM310300 24015G25KT P6SM SCT150 FM311000 25012KT P6SM SCT050 FM311600 23020G30KT P6SM SKC

May-31@
00:00 UTC

May-31 @ 00:00 UTC

May-31@
03:00 UTC

May-31 @ 03:00 UTC

TAF KJER 302335Z 3100/3124 25015G25KT P6SM VCSH BKN100

Expired

Wind
  • 250° at 15 KTS
  • {Gusting to 25 KTS
Conditions
Area Showers
Cloud Levels
  • Broken at 10,000' AGL

May-31@
03:00 UTC

May-31 @ 03:00 UTC

May-31@
10:00 UTC

May-31 @ 10:00 UTC

FM310300 24015G25KT P6SM SCT150

Expired

Wind
  • 240° at 15 KTS
  • {Gusting to 25 KTS
Cloud Levels
  • Scattered at 15,000' AGL

May-31@
10:00 UTC

May-31 @ 10:00 UTC

May-31@
16:00 UTC

May-31 @ 16:00 UTC

FM311000 25012KT P6SM SCT050

Expired

Wind
  • 250° at 12 KTS
Cloud Levels
  • Scattered at 5,000' AGL

May-31@
16:00 UTC

May-31 @ 16:00 UTC

Jun-1@
00:00 UTC

Jun-1 @ 00:00 UTC

FM311600 23020G30KT P6SM SKC

From

From Standard forecast or significant change

Wind
  • 230° at 20 KTS
  • {Gusting to 30 KTS
Cloud Levels
  • Clear skies